Time;durP1;ratioP1;P1;durP2;ratioP2;P2;SDS_P1;SDS_P2;PMS_P1;PMS_P2;Temp;Humidity;BMP_temperature;BMP_pressure;BME280_temperature;BME280_humidity;BME280_pressure;Samples;Min_cycle;Max_cycle;Signal;HPM_P1;HPM_P2
2022/12/18 00:02:11;;;;;;;;;56.00;44.67;;;;;2.36;84.47;100192.59;4993842;28;45939;-76
2022/12/18 00:04:37;;;;;;;;;54.67;44.00;;;;;2.39;84.48;100196.97;4994326;28;45386;-76
2022/12/18 00:07:02;;;;;;;;;60.00;47.00;;;;;2.42;84.22;100202.22;4994233;28;45649;-76
2022/12/18 00:09:28;;;;;;;;;55.00;43.00;;;;;2.48;86.62;100204.88;4976396;28;45394;-76
2022/12/18 00:11:53;;;;;;;;;46.33;39.00;;;;;2.57;84.54;100204.09;4997572;28;45406;-76
2022/12/18 00:14:19;;;;;;;;;53.67;41.00;;;;;2.58;85.10;100204.09;4980099;28;45589;-76
2022/12/18 00:16:46;;;;;;;;;56.00;39.00;;;;;2.63;83.75;100212.84;4993779;28;46770;-76
2022/12/18 00:19:12;;;;;;;;;56.67;45.33;;;;;2.64;83.70;100213.72;4992093;28;45502;-76
2022/12/18 00:21:39;;;;;;;;;52.33;43.00;;;;;2.63;83.80;100214.56;4984404;28;45455;-75
2022/12/18 00:24:05;;;;;;;;;51.67;42.33;;;;;2.63;83.44;100218.03;4982321;28;45386;-76
2022/12/18 00:26:33;;;;;;;;;54.67;41.33;;;;;2.64;83.70;100224.13;4988526;28;45482;-75
2022/12/18 00:29:06;;;;;;;;;43.67;39.67;;;;;2.64;83.64;100221.50;4984656;28;45464;-76
2022/12/18 00:31:32;;;;;;;;;52.67;39.00;;;;;2.64;83.53;100226.72;4992066;28;45461;-76
2022/12/18 00:33:58;;;;;;;;;50.67;43.67;;;;;2.64;83.59;100222.38;4990774;28;45449;-76
2022/12/18 00:36:26;;;;;;;;;54.33;44.00;;;;;2.64;83.62;100227.59;4985856;28;46235;-76
2022/12/18 00:38:54;;;;;;;;;57.00;43.67;;;;;2.64;83.48;100226.72;4985960;28;45479;-76
2022/12/18 00:44:07;;;;;;;;;48.00;42.67;;;;;2.62;83.44;100228.44;4976450;28;45497;-75
2022/12/18 00:46:32;;;;;;;;;52.67;41.33;;;;;2.59;83.15;100231.00;4991547;28;47978;-75
2022/12/18 00:48:59;;;;;;;;;49.67;39.33;;;;;2.55;83.12;100232.69;4990589;28;45568;-75
2022/12/18 00:51:24;;;;;;;;;49.33;39.00;;;;;2.53;83.26;100228.31;4993463;28;45636;-75
2022/12/18 00:53:50;;;;;;;;;54.67;42.67;;;;;2.51;83.26;100230.94;4991684;28;45568;-75
2022/12/18 00:56:15;;;;;;;;;47.33;39.67;;;;;2.48;83.45;100233.50;4989797;28;46201;-75
2022/12/18 00:58:41;;;;;;;;;58.67;45.33;;;;;2.48;83.42;100232.63;4991656;28;45420;-75
2022/12/18 01:01:06;;;;;;;;;51.00;37.00;;;;;2.45;83.84;100236.94;4987409;28;45543;-75
2022/12/18 01:03:32;;;;;;;;;45.33;38.33;;;;;2.43;83.48;100230.84;4989634;28;45509;-75
2022/12/18 01:05:58;;;;;;;;;42.00;38.67;;;;;2.41;83.77;100222.16;4999333;28;46327;-75
2022/12/18 01:08:23;;;;;;;;;60.00;46.67;;;;;2.39;83.57;100236.00;4990708;28;45449;-76
2022/12/18 01:10:49;;;;;;;;;49.33;41.33;;;;;2.36;83.83;100234.22;4987868;28;45429;-75
2022/12/18 01:13:14;;;;;;;;;44.67;40.00;;;;;2.35;83.87;100229.88;4990135;28;45487;-75
2022/12/18 01:15:40;;;;;;;;;45.00;37.00;;;;;2.33;83.45;100236.81;4985678;28;46480;-74
2022/12/18 01:18:06;;;;;;;;;55.00;42.00;;;;;2.33;83.68;100238.56;4991155;28;45522;-74
2022/12/18 01:20:32;;;;;;;;;48.33;41.00;;;;;2.32;83.92;100236.81;4990119;28;45374;-75
2022/12/18 01:22:58;;;;;;;;;44.33;36.33;;;;;2.32;83.89;100240.28;4982804;28;45407;-75
2022/12/18 01:25:23;;;;;;;;;39.33;37.67;;;;;2.31;83.57;100237.66;4988665;28;45991;-75
2022/12/18 01:27:49;;;;;;;;;44.00;38.00;;;;;2.27;83.91;100234.16;4991244;28;45457;-75
2022/12/18 01:30:14;;;;;;;;;48.33;38.00;;;;;2.26;83.91;100245.41;4985622;28;45564;-75
2022/12/18 01:32:40;;;;;;;;;45.00;41.00;;;;;2.25;84.03;100238.47;4994716;28;45387;-75
2022/12/18 01:35:06;;;;;;;;;50.00;40.33;;;;;2.23;83.90;100239.28;4988321;28;45473;-75
2022/12/18 01:37:31;;;;;;;;;39.00;38.67;;;;;2.22;84.29;100242.75;4992067;28;45394;-75
2022/12/18 01:39:57;;;;;;;;;42.33;39.33;;;;;2.20;84.23;100249.66;4995586;28;45485;-75
2022/12/18 01:42:22;;;;;;;;;39.00;34.33;;;;;2.19;83.97;100247.91;4984387;28;45349;-75
2022/12/18 01:45:02;;;;;;;;;42.00;38.00;;;;;2.16;84.03;100253.97;4994374;28;45400;-75
2022/12/18 01:47:30;;;;;;;;;50.00;40.33;;;;;2.16;84.09;100248.78;4984355;28;45389;-75
2022/12/18 01:49:59;;;;;;;;;36.33;33.67;;;;;2.16;83.94;100245.28;4990964;28;45397;-75
2022/12/18 01:52:28;;;;;;;;;38.33;35.67;;;;;2.14;84.01;100250.47;4983165;28;45425;-75
2022/12/18 01:54:55;;;;;;;;;32.33;31.33;;;;;2.14;83.83;100258.28;4994474;28;45694;-75
2022/12/18 01:57:21;;;;;;;;;34.33;33.33;;;;;2.13;84.29;100259.13;4991329;28;45390;-75
2022/12/18 01:59:52;;;;;;;;;33.67;33.33;;;;;2.14;84.23;100258.28;4989387;28;45442;-75
2022/12/18 02:02:19;;;;;;;;;46.67;39.33;;;;;2.10;84.26;100254.75;4990237;28;45302;-75
2022/12/18 02:04:44;;;;;;;;;46.33;40.00;;;;;2.10;84.14;100259.97;4991197;28;46663;-75
2022/12/18 02:07:51;;;;;;;;;41.00;31.67;;;;;2.12;84.46;100256.50;4986198;28;45377;-75
2022/12/18 02:10:27;;;;;;;;;42.33;36.33;;;;;2.13;84.29;100261.72;4991110;28;45406;-75
2022/12/18 02:13:03;;;;;;;;;39.67;37.33;;;;;2.13;84.51;100256.53;4980885;28;45584;-75
2022/12/18 02:15:41;;;;;;;;;22.67;17.00;;;;;2.13;84.24;100259.13;4983930;28;46335;-75
2022/12/18 02:18:11;;;;;;;;;51.33;42.00;;;;;2.14;84.40;100266.09;4987981;28;45454;-75
2022/12/18 02:21:06;;;;;;;;;39.67;37.33;;;;;2.14;84.34;100260.88;4991006;28;45567;-75
2022/12/18 02:23:43;;;;;;;;;46.33;38.67;;;;;2.14;84.68;100263.47;4982376;28;45396;-75
2022/12/18 02:26:35;;;;;;;;;48.00;40.67;;;;;2.14;84.58;100268.69;4981359;28;46445;-75
2022/12/18 02:29:17;;;;;;;;;50.33;40.33;;;;;2.12;84.59;100269.50;4986893;28;45401;-75
2022/12/18 02:31:50;;;;;;;;;48.33;37.00;;;;;2.09;84.78;100266.03;4992778;28;45369;-75
2022/12/18 02:34:18;;;;;;;;;49.67;40.67;;;;;2.11;84.94;100271.25;4986300;28;45438;-75
2022/12/18 02:36:45;;;;;;;;;51.67;42.67;;;;;2.10;85.08;100267.75;4992810;28;45670;-75
2022/12/18 02:39:14;;;;;;;;;45.67;39.33;;;;;2.11;84.85;100273.84;4994931;28;45418;-75
2022/12/18 02:41:41;;;;;;;;;51.67;41.67;;;;;2.10;85.19;100277.28;4995254;28;45419;-75
2022/12/18 02:44:10;;;;;;;;;45.67;39.67;;;;;2.11;85.47;100279.03;4983527;28;45585;-75
2022/12/18 02:46:39;;;;;;;;;39.33;38.67;;;;;2.09;85.36;100279.03;4988972;28;46483;-75
2022/12/18 02:49:40;;;;;;;;;45.67;38.00;;;;;2.14;85.35;100286.88;4991643;28;45373;-75
2022/12/18 02:52:12;;;;;;;;;48.67;42.00;;;;;2.16;85.75;100289.50;4991893;28;45491;-75
2022/12/18 02:54:55;;;;;;;;;39.33;36.67;;;;;2.16;85.59;100293.00;4993178;28;45513;-75
2022/12/18 02:58:08;;;;;;;;;43.33;37.33;;;;;2.17;85.44;100294.75;4987299;28;46327;-75
2022/12/18 03:00:42;;;;;;;;;49.33;42.33;;;;;2.20;85.50;100296.47;4981801;28;45532;-75
2022/12/18 03:03:14;;;;;;;;;50.00;41.00;;;;;2.19;85.73;100295.59;4989303;28;45496;-75
2022/12/18 03:05:56;;;;;;;;;50.00;41.67;;;;;2.18;85.57;100293.84;4995006;28;45406;-75
2022/12/18 03:08:27;;;;;;;;;51.33;44.67;;;;;2.18;86.00;100296.47;4986952;28;46981;-74
2022/12/18 03:11:01;;;;;;;;;53.33;42.00;;;;;2.17;85.90;100302.53;4995435;28;45407;-74
2022/12/18 03:13:36;;;;;;;;;48.67;38.00;;;;;2.16;85.21;100300.78;4988178;28;45527;-74
2022/12/18 03:16:04;;;;;;;;;34.33;29.67;;;;;2.14;84.76;100301.63;4981837;28;45626;-74
2022/12/18 03:18:34;;;;;;;;;34.00;30.33;;;;;2.11;84.74;100299.84;4988391;28;46330;-74
2022/12/18 03:21:04;;;;;;;;;36.00;28.67;;;;;2.07;84.46;100301.53;4980896;28;45446;-74
2022/12/18 03:23:38;;;;;;;;;29.00;26.33;;;;;2.04;83.88;100300.63;4985361;28;45575;-74
2022/12/18 03:26:15;;;;;;;;;30.33;26.33;;;;;2.01;83.88;100306.66;4989497;28;45466;-74
2022/12/18 03:28:47;;;;;;;;;31.00;28.33;;;;;1.98;83.61;100301.44;4986668;28;46355;-74
2022/12/18 03:31:14;;;;;;;;;32.33;29.67;;;;;1.95;83.59;100305.72;4984553;28;45493;-74
2022/12/18 03:33:51;;;;;;;;;30.00;23.00;;;;;1.92;83.52;100309.13;4976988;28;45362;-74
2022/12/18 03:36:17;;;;;;;;;30.33;25.33;;;;;1.89;83.81;100306.50;4982002;28;45733;-74
2022/12/18 03:38:42;;;;;;;;;39.00;25.00;;;;;1.88;83.43;100306.47;4975637;28;46988;-76
2022/12/18 03:41:23;;;;;;;;;29.33;25.00;;;;;1.84;83.69;100313.38;4984074;28;45391;-74
2022/12/18 03:43:55;;;;;;;;;32.00;28.00;;;;;1.82;83.69;100314.19;4994174;28;45565;-74
2022/12/18 03:46:33;;;;;;;;;27.00;25.33;;;;;1.79;83.59;100301.16;4986134;28;45376;-73
2022/12/18 03:49:12;;;;;;;;;35.67;28.67;;;;;1.76;83.60;100307.19;4992417;28;47004;-75
2022/12/18 03:51:48;;;;;;;;;34.33;28.33;;;;;1.74;83.45;100319.28;4985930;28;45445;-73
2022/12/18 03:54:15;;;;;;;;;27.00;21.67;;;;;1.71;83.81;100321.81;4985005;28;45630;-73
2022/12/18 03:56:46;;;;;;;;;31.00;26.33;;;;;1.69;83.92;100314.00;5000443;28;45475;-73
2022/12/18 03:59:13;;;;;;;;;27.67;22.67;;;;;1.69;83.77;100324.41;4982044;28;46291;-73
2022/12/18 04:01:45;;;;;;;;;24.67;22.67;;;;;1.70;84.04;100327.88;4977308;28;45559;-74
2022/12/18 04:04:12;;;;;;;;;29.00;25.00;;;;;1.70;84.29;100335.66;4987257;28;45516;-75
2022/12/18 04:06:40;;;;;;;;;34.33;28.33;;;;;1.70;84.15;100333.94;4992581;28;45495;-74
2022/12/18 04:09:06;;;;;;;;;30.33;25.00;;;;;1.68;84.42;100329.56;4991256;28;46784;-74
2022/12/18 04:11:31;;;;;;;;;36.33;26.00;;;;;1.66;84.42;100326.97;4976496;28;45432;-73
2022/12/18 04:13:58;;;;;;;;;32.33;31.33;;;;;1.68;84.57;100332.16;4977072;28;45457;-74
2022/12/18 04:16:27;;;;;;;;;34.33;32.00;;;;;1.68;84.50;100337.38;4987028;28;45420;-74
2022/12/18 04:18:53;;;;;;;;;45.67;34.67;;;;;1.65;84.67;100338.22;4985321;28;46616;-74
2022/12/18 04:21:19;;;;;;;;;42.00;31.00;;;;;1.63;84.97;100334.72;4997386;28;45410;-74
2022/12/18 04:23:45;;;;;;;;;35.67;31.00;;;;;1.61;84.57;100333.81;4988340;28;45456;-74
2022/12/18 04:26:10;;;;;;;;;30.00;26.33;;;;;1.61;84.53;100336.41;4986699;28;45357;-74
2022/12/18 04:28:36;;;;;;;;;43.67;32.67;;;;;1.61;84.74;100340.75;4987058;28;45657;-74
2022/12/18 04:31:02;;;;;;;;;30.33;28.00;;;;;1.60;84.60;100339.88;4987433;28;45434;-74
2022/12/18 04:33:27;;;;;;;;;28.00;25.00;;;;;1.61;84.39;100348.53;4986485;28;45531;-74
2022/12/18 04:35:53;;;;;;;;;24.33;22.00;;;;;1.58;84.11;100335.50;4989002;28;45485;-74
2022/12/18 04:38:18;;;;;;;;;26.00;23.33;;;;;1.57;84.23;100354.53;4988184;28;45876;-74
2022/12/18 04:40:44;;;;;;;;;27.67;24.33;;;;;1.57;84.20;100349.34;4992171;28;45472;-74
2022/12/18 04:43:09;;;;;;;;;30.33;24.00;;;;;1.55;84.59;100345.84;4991363;28;45465;-74
2022/12/18 04:45:34;;;;;;;;;18.33;17.00;;;;;1.53;84.09;100356.19;4993952;28;45494;-74
2022/12/18 04:48:01;;;;;;;;;30.67;24.33;;;;;1.52;84.07;100354.44;4993234;28;45909;-74
2022/12/18 04:50:27;;;;;;;;;36.33;27.33;;;;;1.50;84.00;100350.97;4986960;28;45587;-74
2022/12/18 04:52:54;;;;;;;;;34.00;26.33;;;;;1.50;83.96;100353.59;4989969;28;45394;-74
2022/12/18 04:55:20;;;;;;;;;33.67;27.00;;;;;1.48;84.15;100362.19;4986795;28;45478;-74
2022/12/18 04:57:45;;;;;;;;;29.00;24.33;;;;;1.46;84.11;100361.28;4987816;28;46659;-74
2022/12/18 05:00:11;;;;;;;;;27.00;25.33;;;;;1.45;84.20;100368.22;4985682;28;45471;-74
2022/12/18 05:02:36;;;;;;;;;21.00;20.67;;;;;1.43;84.22;100366.44;4996784;28;45309;-74
2022/12/18 05:05:02;;;;;;;;;25.67;23.33;;;;;1.41;84.36;100369.00;4999076;28;45465;-74
2022/12/18 05:07:28;;;;;;;;;26.33;26.33;;;;;1.36;84.20;100363.72;4988362;28;46422;-74
2022/12/18 05:09:53;;;;;;;;;28.33;24.33;;;;;1.35;84.45;100371.50;4987738;28;45380;-74
2022/12/18 05:12:19;;;;;;;;;28.00;26.33;;;;;1.34;84.55;100364.56;4995553;28;45374;-74
2022/12/18 05:14:44;;;;;;;;;26.00;20.67;;;;;1.33;84.59;100378.41;4987727;28;45604;-74
2022/12/18 05:17:09;;;;;;;;;28.67;26.00;;;;;1.32;84.61;100376.66;5006176;28;45945;-73
2022/12/18 05:19:35;;;;;;;;;23.00;20.67;;;;;1.32;84.71;100381.84;4988535;28;45497;-74
2022/12/18 05:22:01;;;;;;;;;31.67;28.00;;;;;1.32;85.02;100389.66;4992316;28;46042;-74
2022/12/18 05:24:26;;;;;;;;;36.33;27.67;;;;;1.30;85.05;100383.53;4991226;28;45469;-74
2022/12/18 05:26:52;;;;;;;;;27.33;24.33;;;;;1.29;85.13;100387.00;4991661;28;45424;-74
2022/12/18 05:29:17;;;;;;;;;23.33;20.00;;;;;1.29;84.95;100389.59;4982315;28;45371;-74
2022/12/18 05:31:42;;;;;;;;;26.67;21.00;;;;;1.29;84.86;100392.19;4991526;28;45366;-74
2022/12/18 05:34:08;;;;;;;;;30.00;24.67;;;;;1.29;85.01;100387.88;4984927;28;45418;-74
2022/12/18 05:36:33;;;;;;;;;25.67;22.33;;;;;1.30;85.15;100396.53;4989049;28;45513;-74
2022/12/18 05:39:00;;;;;;;;;36.00;26.33;;;;;1.29;85.04;100387.00;4993396;28;45376;-74
2022/12/18 05:41:26;;;;;;;;;29.00;28.33;;;;;1.29;85.14;100384.38;4985452;28;45367;-74
2022/12/18 05:43:51;;;;;;;;;36.33;28.67;;;;;1.28;84.98;100391.31;4988365;28;45369;-74
2022/12/18 05:46:17;;;;;;;;;31.33;27.33;;;;;1.29;85.23;100397.38;4989057;28;45422;-74
2022/12/18 05:48:44;;;;;;;;;21.67;19.00;;;;;1.27;85.11;100391.28;4989136;28;45448;-76
2022/12/18 05:51:15;;;;;;;;;33.00;28.33;;;;;1.28;85.28;100400.81;4991772;28;45530;-74
2022/12/18 05:53:42;;;;;;;;;27.33;27.33;;;;;1.26;85.30;100393.00;4985700;28;45354;-74
2022/12/18 05:56:10;;;;;;;;;29.67;25.33;;;;;1.26;85.37;100397.31;4980323;28;46755;-74
2022/12/18 05:58:36;;;;;;;;;31.00;28.00;;;;;1.24;85.62;100401.59;4990946;28;45501;-74
2022/12/18 06:01:12;;;;;;;;;24.33;24.33;;;;;1.22;85.66;100403.28;4982030;28;45609;-74
2022/12/18 06:03:37;;;;;;;;;34.67;31.67;;;;;1.21;85.40;100411.94;4986413;28;45447;-74
2022/12/18 06:06:03;;;;;;;;;36.33;31.00;;;;;1.20;85.74;100415.38;5006614;28;45445;-74
2022/12/18 06:08:28;;;;;;;;;35.33;32.00;;;;;1.19;86.24;100413.63;4991233;28;45663;-74
2022/12/18 06:10:54;;;;;;;;;31.33;29.00;;;;;1.16;86.44;100419.66;4985664;28;45562;-74
2022/12/18 06:13:20;;;;;;;;;32.00;23.33;;;;;1.14;86.80;100421.34;4986411;28;45406;-74
2022/12/18 06:15:45;;;;;;;;;32.33;30.00;;;;;1.13;86.69;100419.59;4986283;28;46119;-74
2022/12/18 06:18:11;;;;;;;;;35.00;30.33;;;;;1.12;86.85;100427.38;4991667;28;45451;-74
2022/12/18 06:20:39;;;;;;;;;41.33;33.67;;;;;1.11;86.67;100430.81;4984327;28;45333;-74
2022/12/18 06:23:05;;;;;;;;;33.00;29.67;;;;;1.08;86.56;100436.81;4986904;28;45468;-74
2022/12/18 06:25:30;;;;;;;;;25.67;24.33;;;;;1.08;86.66;100441.13;4991812;28;45491;-74
2022/12/18 06:27:55;;;;;;;;;36.33;31.00;;;;;1.04;86.49;100443.66;4990818;28;45468;-74
2022/12/18 06:30:22;;;;;;;;;38.67;35.33;;;;;1.02;86.55;100447.94;4993435;28;45409;-74
2022/12/18 06:32:48;;;;;;;;;34.00;31.33;;;;;1.03;87.01;100452.28;4994592;28;46301;-74
2022/12/18 06:35:14;;;;;;;;;44.67;33.67;;;;;1.03;86.92;100449.69;4990135;28;45480;-74
2022/12/18 06:37:39;;;;;;;;;40.33;34.67;;;;;1.05;87.30;100454.91;4992021;28;45462;-74
2022/12/18 06:40:06;;;;;;;;;39.33;29.00;;;;;1.03;86.76;100452.28;4990555;28;45383;-74
2022/12/18 06:42:31;;;;;;;;;39.67;35.00;;;;;1.05;87.30;100460.13;4989070;28;45297;-74
2022/12/18 06:44:57;;;;;;;;;35.33;35.00;;;;;1.05;87.13;100462.72;4987644;28;46986;-74
2022/12/18 06:47:22;;;;;;;;;39.67;33.67;;;;;1.04;87.37;100463.56;4989511;28;45656;-74
2022/12/18 06:49:48;;;;;;;;;44.67;36.33;;;;;1.02;87.59;100470.44;4986567;28;45426;-74
2022/12/18 06:52:16;;;;;;;;;37.33;36.33;;;;;1.00;87.66;100478.22;4989427;28;45482;-74
2022/12/18 06:54:42;;;;;;;;;47.00;31.00;;;;;1.00;88.29;100479.94;4988566;28;46356;-74
2022/12/18 06:57:07;;;;;;;;;45.33;41.00;;;;;1.01;87.82;100484.25;4990672;28;45451;-74
2022/12/18 06:59:33;;;;;;;;;44.00;38.67;;;;;1.00;88.17;100488.59;4983564;28;45612;-74
2022/12/18 07:01:58;;;;;;;;;40.00;38.67;;;;;0.99;88.51;100492.06;4981420;28;45466;-74
2022/12/18 07:04:30;;;;;;;;;46.67;41.33;;;;;0.99;88.21;100491.16;4989939;28;45521;-74
2022/12/18 07:06:55;;;;;;;;;40.67;35.67;;;;;0.98;88.93;100494.59;4987491;28;45451;-74
2022/12/18 07:09:21;;;;;;;;;34.33;28.67;;;;;0.96;88.80;100509.28;4990727;28;45391;-74
2022/12/18 07:11:46;;;;;;;;;50.00;41.33;;;;;0.96;88.81;100509.28;4985089;28;45698;-74
2022/12/18 07:14:12;;;;;;;;;41.67;38.00;;;;;0.96;89.04;100510.16;4987635;28;46114;-74
2022/12/18 07:16:37;;;;;;;;;37.67;30.67;;;;;0.97;88.86;100514.50;4988123;28;45506;-74
2022/12/18 07:19:02;;;;;;;;;41.67;38.67;;;;;0.98;88.90;100520.56;4987789;28;45501;-74
2022/12/18 07:21:37;;;;;;;;;50.00;38.00;;;;;0.99;88.65;100517.13;5094784;27;45357;-75
2022/12/18 07:24:03;;;;;;;;;44.33;35.00;;;;;0.98;88.56;100520.56;5073953;27;45336;-75
2022/12/18 07:26:29;;;;;;;;;33.00;31.00;;;;;0.96;88.45;100515.34;5084866;27;45640;-75
2022/12/18 07:28:57;;;;;;;;;38.67;37.67;;;;;0.96;88.52;100519.66;5079332;27;45601;-76
2022/12/18 07:31:23;;;;;;;;;39.00;35.33;;;;;0.95;88.65;100526.56;5097655;27;48018;-75
2022/12/18 07:33:50;;;;;;;;;45.00;37.67;;;;;0.94;88.90;100519.63;5073882;27;45854;-75
2022/12/18 07:36:15;;;;;;;;;39.67;34.33;;;;;0.95;88.46;100534.38;5085171;27;45458;-75
2022/12/18 07:38:41;;;;;;;;;49.67;38.67;;;;;0.97;88.41;100521.41;5077265;27;45570;-75
2022/12/18 07:41:10;;;;;;;;;43.00;39.67;;;;;1.00;88.66;100526.69;5081472;27;46740;-75
2022/12/18 07:43:36;;;;;;;;;41.33;38.33;;;;;0.99;88.78;100523.22;5069632;27;45478;-75
2022/12/18 07:46:06;;;;;;;;;37.67;33.00;;;;;1.01;88.59;100534.47;5073483;27;45329;-75
2022/12/18 07:48:31;;;;;;;;;39.00;35.67;;;;;1.02;88.82;100528.44;5069885;27;45475;-75
2022/12/18 07:51:05;;;;;;;;;41.67;36.67;;;;;1.04;88.93;100534.53;5072999;27;45769;-76
2022/12/18 07:53:32;;;;;;;;;48.33;39.33;;;;;1.07;88.96;100533.72;5080870;27;45443;-76
2022/12/18 07:55:58;;;;;;;;;43.33;36.33;;;;;1.09;88.54;100539.84;5081953;27;45457;-76
2022/12/18 07:58:24;;;;;;;;;54.33;40.33;;;;;1.11;88.66;100534.69;5069322;27;45496;-76
2022/12/18 08:00:50;;;;;;;;;45.67;40.67;;;;;1.11;88.78;100535.56;5071085;27;45784;-76
2022/12/18 08:03:15;;;;;;;;;48.00;41.33;;;;;1.16;88.80;100546.03;5074964;27;45374;-76
2022/12/18 08:05:41;;;;;;;;;51.67;40.33;;;;;1.18;88.68;100537.41;5069995;27;45377;-75
2022/12/18 08:08:06;;;;;;;;;44.33;40.00;;;;;1.21;88.38;100547.00;5075613;27;45440;-76
2022/12/18 08:10:31;;;;;;;;;41.33;35.33;;;;;1.21;88.34;100542.69;5076757;27;45449;-75
2022/12/18 08:12:57;;;;;;;;;28.67;25.00;;;;;1.25;88.05;100543.63;5075800;27;45626;-75
2022/12/18 08:15:23;;;;;;;;;38.33;32.00;;;;;1.28;88.05;100541.97;5077514;27;45407;-75
2022/12/18 08:17:48;;;;;;;;;31.33;27.67;;;;;1.33;87.05;100537.75;5075577;27;45443;-75
2022/12/18 08:20:14;;;;;;;;;37.00;33.33;;;;;1.38;87.52;100536.09;5079426;27;45402;-75
2022/12/18 08:22:41;;;;;;;;;27.67;21.00;;;;;1.46;87.40;100538.84;5075454;27;45521;-75
2022/12/18 08:25:07;;;;;;;;;38.00;32.00;;;;;1.56;87.49;100539.88;5075829;27;45459;-75
2022/12/18 08:27:32;;;;;;;;;33.67;32.00;;;;;1.67;87.06;100548.78;5076926;27;45585;-75
2022/12/18 08:29:58;;;;;;;;;31.67;26.00;;;;;1.74;86.87;100537.63;5072636;27;45738;-75
2022/12/18 08:32:25;;;;;;;;;31.00;25.00;;;;;1.83;86.22;100536.94;5063857;27;45480;-76
2022/12/18 08:34:51;;;;;;;;;37.67;31.67;;;;;1.87;85.86;100529.19;5054415;28;45432;-76
2022/12/18 08:37:16;;;;;;;;;30.00;29.00;;;;;1.93;85.69;100524.13;5061639;28;45431;-75
2022/12/18 08:39:41;;;;;;;;;26.00;21.33;;;;;1.97;85.46;100533.72;5060871;28;46207;-75
2022/12/18 08:44:51;;;;;;;;;35.00;26.67;;;;;2.04;85.32;100532.09;5060774;28;45443;-75
2022/12/18 08:47:16;;;;;;;;;30.33;29.67;;;;;2.03;85.50;100530.31;5060408;28;45328;-75
2022/12/18 08:49:41;;;;;;;;;35.67;32.00;;;;;2.08;85.76;100526.09;5074088;27;46672;-75
2022/12/18 08:52:07;;;;;;;;;36.00;31.67;;;;;2.17;86.14;100520.19;5069547;28;45307;-75
2022/12/18 08:54:32;;;;;;;;;37.00;34.00;;;;;2.31;85.86;100522.16;5060363;28;45316;-75
2022/12/18 08:56:58;;;;;;;;;25.33;21.67;;;;;2.40;85.46;100524.88;5056040;28;45326;-75
2022/12/18 08:59:23;;;;;;;;;59.00;35.67;;;;;2.44;85.65;100515.38;5049738;28;45517;-75
2022/12/18 09:01:49;;;;;;;;;50.33;39.67;;;;;2.50;85.33;100522.41;5060385;28;45554;-76
2022/12/18 09:04:15;;;;;;;;;54.00;41.33;;;;;2.51;85.60;100511.16;5053474;28;45543;-75
2022/12/18 09:06:40;;;;;;;;;40.33;38.33;;;;;2.56;85.39;100506.88;5104412;27;45409;-75
2022/12/18 09:09:06;;;;;;;;;48.67;42.67;;;;;2.60;85.03;100509.56;5057771;28;45623;-76
2022/12/18 09:11:33;;;;;;;;;48.33;39.67;;;;;2.60;85.19;100512.16;5059748;28;45483;-75
2022/12/18 09:14:01;;;;;;;;;41.00;38.33;;;;;2.64;85.33;100513.09;5055002;28;45522;-75
2022/12/18 09:16:27;;;;;;;;;44.33;39.00;;;;;2.71;84.80;100504.47;5070940;28;45370;-76
2022/12/18 09:18:59;;;;;;;;;58.33;42.00;;;;;2.73;84.81;100507.97;5051692;28;45463;-75
2022/12/18 09:21:25;;;;;;;;;45.00;41.67;;;;;2.75;84.78;100512.38;5060013;28;45403;-75
2022/12/18 09:23:53;;;;;;;;;49.00;42.00;;;;;2.75;84.76;100517.56;5056225;28;45488;-76
2022/12/18 09:26:18;;;;;;;;;56.67;46.33;;;;;2.78;84.50;100512.41;5066028;28;45467;-76
2022/12/18 09:28:44;;;;;;;;;52.00;40.67;;;;;2.79;84.38;100511.56;5054599;28;45599;-76
2022/12/18 09:31:14;;;;;;;;;49.67;42.33;;;;;2.84;84.55;100506.41;5055164;28;45462;-76
2022/12/18 09:33:40;;;;;;;;;54.00;41.33;;;;;2.88;84.21;100513.41;5054019;28;45448;-75
2022/12/18 09:36:08;;;;;;;;;54.33;45.33;;;;;2.92;84.31;100511.72;5064211;28;45384;-76
2022/12/18 09:38:34;;;;;;;;;56.00;43.67;;;;;2.98;84.37;100517.00;5066704;28;47977;-75
2022/12/18 09:41:31;;;;;;;;;53.33;42.00;;;;;3.02;84.22;100511.84;5061359;28;45451;-75
2022/12/18 09:44:01;;;;;;;;;52.33;41.67;;;;;3.09;83.75;100505.88;5061038;27;45557;-76
2022/12/18 09:46:30;;;;;;;;;48.00;39.67;;;;;3.14;84.19;100508.53;5057498;28;45539;-76
2022/12/18 09:49:00;;;;;;;;;45.67;39.33;;;;;3.22;83.64;100513.81;5066025;28;47696;-76
2022/12/18 09:51:32;;;;;;;;;50.67;41.00;;;;;3.27;83.49;100518.25;5066040;28;45479;-75
2022/12/18 09:54:18;;;;;;;;;46.33;39.67;;;;;3.33;83.08;100517.44;5059326;28;45527;-76
2022/12/18 09:56:44;;;;;;;;;45.33;40.00;;;;;3.39;83.18;100522.72;5060935;28;45435;-76
2022/12/18 09:59:36;;;;;;;;;50.00;40.67;;;;;3.49;82.74;100521.97;5059413;28;46959;-76
2022/12/18 10:02:14;;;;;;;;;38.00;34.67;;;;;3.55;82.79;100523.75;5058135;28;45474;-76
2022/12/18 10:04:40;;;;;;;;;37.00;32.00;;;;;3.62;82.33;100529.06;5054975;28;45560;-76
2022/12/18 10:07:21;;;;;;;;;48.00;40.67;;;;;3.67;82.01;100523.91;5057987;28;45313;-76
2022/12/18 10:10:04;;;;;;;;;39.00;37.33;;;;;3.70;81.94;100523.91;5051662;28;47821;-76
2022/12/18 10:12:39;;;;;;;;;44.67;40.33;;;;;3.76;82.10;100526.56;5080180;27;45568;-76
2022/12/18 10:15:30;;;;;;;;;38.33;32.67;;;;;3.81;81.63;100528.38;5047451;28;45463;-77
2022/12/18 10:18:17;;;;;;;;;44.33;34.33;;;;;3.89;81.44;100531.06;5056275;28;45656;-76
2022/12/18 10:20:51;;;;;;;;;48.33;38.33;;;;;3.94;80.94;100524.16;5062133;28;45440;-75
2022/12/18 10:23:38;;;;;;;;;42.67;37.33;;;;;4.00;81.02;100523.34;5050086;28;45507;-76
2022/12/18 10:26:05;;;;;;;;;48.67;36.00;;;;;4.04;81.10;100515.53;5062400;28;45332;-75
2022/12/18 10:28:33;;;;;;;;;45.67;40.33;;;;;4.08;80.79;100517.31;5059222;28;45415;-75
2022/12/18 10:30:59;;;;;;;;;34.00;28.33;;;;;4.12;80.60;100510.38;5051671;28;46498;-75
2022/12/18 10:33:29;;;;;;;;;31.67;26.33;;;;;4.17;80.18;100508.69;5061330;28;45730;-76
2022/12/18 10:35:55;;;;;;;;;42.00;37.33;;;;;4.19;80.46;100505.22;5055289;28;45537;-74
2022/12/18 10:38:26;;;;;;;;;37.00;31.00;;;;;4.25;80.08;100498.31;5057772;28;45469;-75
2022/12/18 10:41:25;;;;;;;;;36.33;34.00;;;;;4.28;80.22;100488.75;5056937;28;45439;-75
2022/12/18 10:44:17;;;;;;;;;41.33;34.33;;;;;4.36;80.37;100486.19;5047801;28;45439;-75
2022/12/18 10:46:43;;;;;;;;;37.00;33.67;;;;;4.40;79.93;100494.06;5075660;27;45441;-75
2022/12/18 10:49:31;;;;;;;;;48.33;38.67;;;;;4.47;80.04;100487.16;5054736;28;45503;-75
2022/12/18 10:52:18;;;;;;;;;39.00;33.00;;;;;4.54;79.26;100486.31;5044790;28;45725;-75
2022/12/18 10:54:48;;;;;;;;;44.33;36.33;;;;;4.61;78.94;100485.50;5051863;28;45464;-75
2022/12/18 10:57:27;;;;;;;;;42.33;34.33;;;;;4.65;79.08;100476.81;5053355;28;45463;-76
2022/12/18 10:59:55;;;;;;;;;33.33;28.00;;;;;4.68;78.76;100475.97;5046909;28;45356;-76
2022/12/18 11:02:39;;;;;;;;;29.33;26.67;;;;;4.71;78.50;100474.22;5070700;27;47313;-75
2022/12/18 11:05:33;;;;;;;;;36.33;27.33;;;;;4.73;78.28;100475.09;5052787;28;45463;-76
2022/12/18 11:08:00;;;;;;;;;32.00;29.33;;;;;4.74;78.41;100471.63;5041703;28;45383;-75
2022/12/18 11:10:37;;;;;;;;;31.00;29.33;;;;;4.77;78.59;100474.25;5053088;28;45403;-75
2022/12/18 11:13:18;;;;;;;;;33.67;31.00;;;;;4.81;77.99;100464.72;5062297;27;45397;-75
2022/12/18 11:15:44;;;;;;;;;33.00;26.33;;;;;4.87;78.15;100462.09;5068019;28;45470;-75
2022/12/18 11:18:18;;;;;;;;;29.33;27.00;;;;;4.91;77.58;100456.91;5052723;28;45486;-75
2022/12/18 11:20:51;;;;;;;;;22.00;20.33;;;;;4.96;77.10;100451.72;5051279;28;45303;-75
2022/12/18 11:23:20;;;;;;;;;23.33;18.67;;;;;5.01;76.85;100441.28;5051631;28;47883;-74
2022/12/18 11:25:58;;;;;;;;;35.33;27.33;;;;;5.07;76.76;100446.50;5053526;28;45499;-75
2022/12/18 11:28:29;;;;;;;;;24.00;22.67;;;;;5.12;76.50;100440.44;5053637;28;45458;-75
2022/12/18 11:31:16;;;;;;;;;26.00;22.67;;;;;5.16;76.19;100436.97;5053906;28;45444;-75
2022/12/18 11:33:46;;;;;;;;;32.00;23.00;;;;;5.21;75.55;100434.34;5050639;28;47766;-74